Weeping Water, NE

10:05 AM CDT on August 25, 2019 (GMT -0500)
CASS COUNTY EMERGENCY MGMNT | | Change Station
Active Advisory: Flood Warning

Elev 1276 ft 40.91 °N, 96.14 °W | Updated 5 minutes ago

Overcast
Overcast
64.9 °F
Feels Like 64.9 °F
N
0
Wind Variable Wind from SE
Gusts 0.0 mph

Today
High -- | Low -- °F
--% Chance of Precip.
Yesterday
High -- | Low -- °F
Precip. -- in
Pressure 29.93 in
Visibility 10.0 miles
Clouds Overcast 1400 ft
Dew Point 62 °F
Humidity 89%
Rainfall 0.00 in
Snow Depth Not available.
6:44 AM 8:08 PM
Waning Crescent, 29% visible
METAR KPMV 251455Z AUTO 11009KT 10SM OVC014 19/17 A2993 RMK AO2 T01900167
Pressure 29.93 in
Visibility 10.0 miles
Clouds Overcast 1400 ft
Dew Point 62 °F
Humidity 89%
Rainfall 0.00 in
Snow Depth Not available.
6:44 AM 8:08 PM
Waning Crescent, 29% visible
METAR KPMV 251455Z AUTO 11009KT 10SM OVC014 19/17 A2993 RMK AO2 T01900167

Get Your Daily Forecast Email!

Thanks for signing up!

Be on the lookout for a verification email in your inbox.

You'll start receiving severe weather alerts in your inbox..

×

10-Day Weather Forecast

Almanac

Astronomy

Aug. 25, 2019 Rise Set
Actual Time
Civil Twilight
Nautical Twilight
Astronomical Twilight
Moon
Length of Visible Light
Length of Day
Tomorrow will be .
, % of the Moon is Illuminated

Today's Extremes

State Highs State Lows

Community

WunderPhotos

Category 6

Welcome to Category 6. This is the collective home for Weather Underground's featured writeups by Dr. Jeff Masters (right), Bob Henson (left), Chris Burt, and other regular contributors.

Nearby

Air Quality

  Air Quality AQ Index Pollutant
Not available.

Snow Depth

Station Depth Elevation

Earthquake Activity

City Distance Mag. Time & Date
Minimum magnitude displayed is 2.5.

Coastal Water Temperatures

Place Temperature

Stations

Nearby Weather Stations

Station Location Temp. Windchill Dew Point Humidity Wind Precip. Elev Updated Type
                   

Watches & Warnings

Flood Warning
Issued: 8:59 AM CDT Aug. 25, 2019 – National Weather Service

The Flood Warning continues for
the Missouri River at Plattsmouth.
* At 8:15 am Sunday the stage was 26.3 feet... or 0.3 feet above
flood stage.
* Flood stage is 26.0 feet.
* Minor flooding is occurring and minor flooding is forecast.



Lat... Lon 4106 9591 4107 9574 4078 9572 4078 9587
      4092 9585